Time;durP1;ratioP1;P1;durP2;ratioP2;P2;SDS_P1;SDS_P2;PMS_P1;PMS_P2;Temp;Humidity;BMP_temperature;BMP_pressure;BME280_temperature;BME280_humidity;BME280_pressure;Samples;Min_cycle;Max_cycle;Signal;HPM_P1;HPM_P2
2023/08/03 00:05:10;;;;;;;9.95;7.78;;;;;;;;;;4987597;28;20045;-63
2023/08/03 00:07:58;;;;;;;9.05;7.32;;;;;;;;;;4980692;28;20026;-62
2023/08/03 00:13:34;;;;;;;10.77;7.82;;;;;;;;;;4987586;28;20041;-63
2023/08/03 00:16:23;;;;;;;11.07;7.68;;;;;;;;;;4985637;28;20468;-63
2023/08/03 00:19:11;;;;;;;12.63;8.23;;;;;;;;;;4980148;28;20490;-63
2023/08/03 00:21:59;;;;;;;11.60;7.68;;;;;;;;;;4989167;28;20491;-63
2023/08/03 00:24:46;;;;;;;9.68;8.45;;;;;;;;;;4990196;28;20018;-64
2023/08/03 00:27:34;;;;;;;9.52;7.57;;;;;;;;;;4983652;28;20027;-63
2023/08/03 00:30:22;;;;;;;9.35;7.43;;;;;;;;;;4991078;28;20424;-63
2023/08/03 00:33:10;;;;;;;9.57;7.55;;;;;;;;;;4992823;28;20026;-63
2023/08/03 00:35:58;;;;;;;10.35;7.47;;;;;;;;;;4988876;28;20147;-64
2023/08/03 00:38:46;;;;;;;9.93;8.20;;;;;;;;;;4991812;28;20050;-64
2023/08/03 00:41:34;;;;;;;9.10;7.43;;;;;;;;;;4992951;28;20076;-65
2023/08/03 00:44:12;;;;;;;11.57;7.90;;;;;;;;;;4969611;28;20023;-65
2023/08/03 00:47:10;;;;;;;9.68;7.68;;;;;;;;;;4990921;28;20039;-65
2023/08/03 00:49:58;;;;;;;10.10;7.82;;;;;;;;;;4992479;28;20053;-65
2023/08/03 00:52:56;;;;;;;10.18;7.35;;;;;;;;;;4989939;28;20518;-65
2023/08/03 00:59:01;;;;;;;9.93;7.53;;;;;;;;;;4978659;28;20038;-64
2023/08/03 01:07:42;;;;;;;11.65;8.05;;;;;;;;;;4991954;28;20085;-64
2023/08/03 01:10:12;;;;;;;9.85;7.95;;;;;;;;;;4968154;28;20126;-63
2023/08/03 01:16:16;;;;;;;13.25;8.02;;;;;;;;;;4967098;28;20614;-64
2023/08/03 01:19:04;;;;;;;10.75;8.27;;;;;;;;;;4992478;28;20486;-63
2023/08/03 01:21:52;;;;;;;9.38;7.53;;;;;;;;;;4980723;28;20395;-63
2023/08/03 01:24:40;;;;;;;11.35;7.88;;;;;;;;;;4992451;28;20012;-64
2023/08/03 01:27:28;;;;;;;9.48;7.70;;;;;;;;;;4990296;28;20031;-64
2023/08/03 01:30:16;;;;;;;11.15;7.72;;;;;;;;;;4957965;28;20606;-63
2023/08/03 01:33:04;;;;;;;10.68;7.53;;;;;;;;;;4991201;28;20061;-64
2023/08/03 01:35:30;;;;;;;9.02;8.13;;;;;;;;;;5005069;23;20843;-76
2023/08/03 01:37:55;;;;;;;12.40;8.25;;;;;;;;;;5004693;28;20134;-76
2023/08/03 01:40:21;;;;;;;8.68;7.72;;;;;;;;;;4975299;28;20034;-76
2023/08/03 01:42:46;;;;;;;10.10;8.27;;;;;;;;;;4990556;28;20543;-78
2023/08/03 01:45:11;;;;;;;8.83;7.90;;;;;;;;;;4986255;28;20289;-78
2023/08/03 01:47:36;;;;;;;11.00;8.25;;;;;;;;;;4991987;28;20288;-76
2023/08/03 01:50:02;;;;;;;9.35;7.80;;;;;;;;;;4978778;28;20124;-77
2023/08/03 01:52:27;;;;;;;8.90;7.88;;;;;;;;;;4981374;28;20030;-77
2023/08/03 01:54:52;;;;;;;10.93;8.43;;;;;;;;;;4979893;28;20044;-77
2023/08/03 01:57:18;;;;;;;10.13;7.63;;;;;;;;;;4992041;28;20850;-77
2023/08/03 01:59:43;;;;;;;9.57;8.23;;;;;;;;;;4992087;28;20351;-78
2023/08/03 02:02:08;;;;;;;11.32;8.15;;;;;;;;;;4975168;28;20402;-76
2023/08/03 02:04:34;;;;;;;11.57;7.97;;;;;;;;;;4959689;28;20037;-77
2023/08/03 02:07:05;;;;;;;10.17;7.40;;;;;;;;;;4988189;28;20286;-77
2023/08/03 02:09:31;;;;;;;11.65;8.57;;;;;;;;;;4980974;28;20038;-77
2023/08/03 02:11:56;;;;;;;12.30;8.60;;;;;;;;;;4972966;28;20118;-77
2023/08/03 02:14:21;;;;;;;10.37;8.13;;;;;;;;;;4991342;28;20038;-77
2023/08/03 02:16:46;;;;;;;10.83;8.63;;;;;;;;;;5009289;28;20050;-77
2023/08/03 02:19:12;;;;;;;9.80;8.30;;;;;;;;;;5010508;28;20391;-77
2023/08/03 02:21:37;;;;;;;10.17;7.90;;;;;;;;;;4993510;28;20277;-77
2023/08/03 02:24:02;;;;;;;10.70;8.67;;;;;;;;;;5009425;28;20041;-77
2023/08/03 02:26:27;;;;;;;10.82;8.40;;;;;;;;;;4990922;28;20034;-79
2023/08/03 02:28:53;;;;;;;9.73;7.53;;;;;;;;;;4998396;28;20537;-78
2023/08/03 02:31:18;;;;;;;10.35;8.13;;;;;;;;;;4972005;28;20285;-77
2023/08/03 02:33:43;;;;;;;11.83;8.47;;;;;;;;;;4987217;28;20128;-78
2023/08/03 02:36:09;;;;;;;10.75;8.18;;;;;;;;;;5003152;28;20284;-78
2023/08/03 02:38:34;;;;;;;10.60;8.47;;;;;;;;;;5009144;28;20213;-78
2023/08/03 02:40:59;;;;;;;10.43;8.20;;;;;;;;;;4991435;28;20291;-78
2023/08/03 02:43:27;;;;;;;11.43;8.93;;;;;;;;;;4985006;28;20964;-78
2023/08/03 02:45:53;;;;;;;10.55;8.63;;;;;;;;;;4978137;28;20297;-78
2023/08/03 02:48:18;;;;;;;11.80;8.60;;;;;;;;;;4992072;28;20428;-78
2023/08/03 02:50:43;;;;;;;9.53;8.23;;;;;;;;;;4992928;28;20034;-78
2023/08/03 02:53:08;;;;;;;11.90;8.40;;;;;;;;;;4990834;28;20273;-78
2023/08/03 02:55:34;;;;;;;11.07;8.70;;;;;;;;;;4992808;28;20292;-78
2023/08/03 02:57:59;;;;;;;9.93;8.33;;;;;;;;;;4993298;28;20500;-78
2023/08/03 03:00:25;;;;;;;10.63;8.60;;;;;;;;;;4973724;28;20290;-78
2023/08/03 03:02:50;;;;;;;11.07;8.40;;;;;;;;;;4994727;28;20057;-78
2023/08/03 03:05:15;;;;;;;10.20;8.33;;;;;;;;;;5009087;28;20061;-78
2023/08/03 03:07:40;;;;;;;12.63;9.25;;;;;;;;;;4977320;28;20042;-78
2023/08/03 03:10:06;;;;;;;10.70;8.13;;;;;;;;;;4990618;28;20030;-78
2023/08/03 03:12:31;;;;;;;10.00;8.23;;;;;;;;;;4992166;28;20064;-79
2023/08/03 03:14:56;;;;;;;12.00;9.10;;;;;;;;;;4992353;28;20033;-78
2023/08/03 03:17:21;;;;;;;12.43;9.17;;;;;;;;;;5010052;28;20409;-78
2023/08/03 03:19:47;;;;;;;12.30;8.80;;;;;;;;;;4991072;28;20539;-79
2023/08/03 03:22:12;;;;;;;10.82;8.35;;;;;;;;;;4956016;28;20045;-80
2023/08/03 03:24:37;;;;;;;10.70;8.30;;;;;;;;;;4972739;28;20175;-78
2023/08/03 03:27:02;;;;;;;11.60;8.87;;;;;;;;;;5004586;28;20273;-78
2023/08/03 03:29:28;;;;;;;11.32;8.98;;;;;;;;;;5009154;28;20590;-77
2023/08/03 03:31:53;;;;;;;11.27;8.77;;;;;;;;;;5009095;28;20034;-77
2023/08/03 03:34:18;;;;;;;11.43;8.60;;;;;;;;;;4993653;28;20305;-77
2023/08/03 03:36:43;;;;;;;10.90;7.87;;;;;;;;;;4995774;28;20298;-78
2023/08/03 03:39:08;;;;;;;9.37;8.37;;;;;;;;;;4988815;28;20053;-78
2023/08/03 03:41:34;;;;;;;12.25;9.18;;;;;;;;;;5007299;28;20038;-78
2023/08/03 03:43:59;;;;;;;12.70;9.10;;;;;;;;;;4997235;28;20037;-78
2023/08/03 03:46:24;;;;;;;12.27;8.73;;;;;;;;;;4996507;28;20057;-78
2023/08/03 03:48:49;;;;;;;10.10;8.47;;;;;;;;;;4989955;28;20493;-78
2023/08/03 03:51:17;;;;;;;11.00;8.67;;;;;;;;;;4990063;28;20548;-78
2023/08/03 03:53:42;;;;;;;12.68;9.05;;;;;;;;;;4990498;28;20293;-78
2023/08/03 03:56:07;;;;;;;12.67;9.10;;;;;;;;;;4994194;28;20126;-78
2023/08/03 03:58:33;;;;;;;10.10;8.57;;;;;;;;;;5005532;28;20136;-77
2023/08/03 04:00:58;;;;;;;14.60;9.07;;;;;;;;;;4989616;28;20127;-77
2023/08/03 04:03:26;;;;;;;11.17;9.33;;;;;;;;;;4984557;28;20042;-78
2023/08/03 04:05:52;;;;;;;11.63;9.32;;;;;;;;;;4992697;28;20327;-78
2023/08/03 04:08:17;;;;;;;14.73;9.38;;;;;;;;;;4994621;28;20508;-78
2023/08/03 04:10:42;;;;;;;10.57;8.73;;;;;;;;;;5010404;28;20030;-78
2023/08/03 04:13:08;;;;;;;12.80;8.65;;;;;;;;;;4994509;28;20288;-77
2023/08/03 04:15:33;;;;;;;11.20;8.83;;;;;;;;;;5012025;28;20045;-75
2023/08/03 04:17:58;;;;;;;11.47;8.67;;;;;;;;;;5011565;28;20320;-76
2023/08/03 04:20:23;;;;;;;11.57;9.20;;;;;;;;;;4977375;28;20289;-77
2023/08/03 04:22:48;;;;;;;9.77;8.67;;;;;;;;;;4988983;28;20041;-77
2023/08/03 04:25:14;;;;;;;11.40;9.13;;;;;;;;;;4979455;28;20347;-77
2023/08/03 04:27:39;;;;;;;11.98;9.30;;;;;;;;;;4991600;28;20033;-77
2023/08/03 04:30:04;;;;;;;12.23;9.20;;;;;;;;;;4994956;28;20026;-78
2023/08/03 04:32:30;;;;;;;12.50;8.88;;;;;;;;;;4994534;28;20045;-77
2023/08/03 04:34:55;;;;;;;11.23;8.45;;;;;;;;;;4994238;28;20061;-77
2023/08/03 04:37:20;;;;;;;11.70;9.33;;;;;;;;;;5011461;28;20115;-76
2023/08/03 04:39:45;;;;;;;12.40;9.10;;;;;;;;;;4986765;28;20386;-76
2023/08/03 04:42:11;;;;;;;14.57;10.00;;;;;;;;;;4968766;28;20293;-77
2023/08/03 04:44:36;;;;;;;13.93;9.37;;;;;;;;;;4986292;28;20340;-77
2023/08/03 04:47:01;;;;;;;12.57;9.50;;;;;;;;;;4996826;28;20050;-76
2023/08/03 04:49:26;;;;;;;12.87;9.73;;;;;;;;;;4998064;28;20869;-76
2023/08/03 04:51:52;;;;;;;12.20;9.63;;;;;;;;;;4999068;28;20420;-76
2023/08/03 04:54:17;;;;;;;11.70;9.80;;;;;;;;;;4984902;28;20389;-77
2023/08/03 04:56:42;;;;;;;11.27;9.20;;;;;;;;;;4978726;28;20378;-76
2023/08/03 04:59:07;;;;;;;12.73;9.50;;;;;;;;;;5000115;28;20047;-74
2023/08/03 05:01:33;;;;;;;11.20;9.23;;;;;;;;;;4979983;28;20737;-75
2023/08/03 05:04:00;;;;;;;12.50;9.32;;;;;;;;;;4974888;28;20053;-74
2023/08/03 05:06:25;;;;;;;12.25;9.63;;;;;;;;;;4998172;28;20044;-74
2023/08/03 05:08:51;;;;;;;12.05;9.98;;;;;;;;;;4991769;28;20038;-74
2023/08/03 05:11:16;;;;;;;11.83;9.60;;;;;;;;;;4997857;28;20050;-74
2023/08/03 05:13:41;;;;;;;11.83;9.30;;;;;;;;;;4984229;28;20037;-74
2023/08/03 05:16:06;;;;;;;13.10;9.67;;;;;;;;;;4981602;28;20375;-74
2023/08/03 05:18:32;;;;;;;13.27;9.70;;;;;;;;;;4997627;28;20088;-74
2023/08/03 05:20:57;;;;;;;14.73;9.73;;;;;;;;;;4998361;28;20061;-75
2023/08/03 05:23:22;;;;;;;13.10;10.27;;;;;;;;;;4995085;28;20037;-74
2023/08/03 05:25:53;;;;;;;13.47;10.67;;;;;;;;;;4984707;28;20041;-74
2023/08/03 05:28:18;;;;;;;13.43;10.85;;;;;;;;;;4984933;28;20041;-74
2023/08/03 05:30:43;;;;;;;14.20;11.17;;;;;;;;;;4984515;28;20069;-75
2023/08/03 05:33:09;;;;;;;11.23;9.75;;;;;;;;;;4975082;28;20309;-72
2023/08/03 05:35:34;;;;;;;13.83;10.67;;;;;;;;;;4983158;28;20030;-73
2023/08/03 05:37:59;;;;;;;12.50;9.73;;;;;;;;;;4985503;28;20339;-73
2023/08/03 05:40:24;;;;;;;11.50;10.30;;;;;;;;;;4997326;28;20030;-73
2023/08/03 05:42:49;;;;;;;12.47;9.63;;;;;;;;;;4994590;28;20820;-73
2023/08/03 05:45:32;;;;;;;13.50;10.33;;;;;;;;;;4993700;28;20555;-74
2023/08/03 05:47:58;;;;;;;13.63;10.10;;;;;;;;;;4982758;28;20060;-73
2023/08/03 05:50:23;;;;;;;17.02;11.15;;;;;;;;;;4978336;28;20038;-73
2023/08/03 05:52:50;;;;;;;11.60;10.40;;;;;;;;;;4996283;28;20065;-73
2023/08/03 05:55:15;;;;;;;12.65;10.75;;;;;;;;;;4973541;28;20297;-73
2023/08/03 06:11:27;;;;;;;12.00;10.07;;;;;;;;;;5052276;27;20415;-63
2023/08/03 06:13:52;;;;;;;13.38;10.05;;;;;;;;;;5032744;28;20545;-66
2023/08/03 06:16:18;;;;;;;15.30;11.00;;;;;;;;;;5042982;28;20745;-63
2023/08/03 06:18:48;;;;;;;14.50;10.38;;;;;;;;;;5045136;28;20044;-65
2023/08/03 06:21:13;;;;;;;;;;;;;;;;;;5047543;28;20068;-63
2023/08/03 06:23:38;;;;;;;15.67;10.03;;;;;;;;;;5048376;23;20153;-65
2023/08/03 06:26:03;;;;;;;12.55;9.52;;;;;;;;;;5026375;28;20094;-63
2023/08/03 06:28:29;;;;;;;11.98;10.05;;;;;;;;;;5030760;28;20067;-63
2023/08/03 06:30:54;;;;;;;14.40;10.70;;;;;;;;;;5026963;28;20140;-69
2023/08/03 06:33:22;;;;;;;16.00;10.80;;;;;;;;;;5031188;28;20137;-67
2023/08/03 06:35:48;;;;;;;13.68;10.10;;;;;;;;;;5032087;28;20390;-64
2023/08/03 06:38:16;;;;;;;13.57;10.32;;;;;;;;;;4998383;23;20315;-68
2023/08/03 06:40:42;;;;;;;12.95;10.23;;;;;;;;;;4990972;28;20053;-67
2023/08/03 06:43:10;;;;;;;13.02;10.18;;;;;;;;;;4989714;28;20412;-65
2023/08/03 06:45:35;;;;;;;13.52;9.68;;;;;;;;;;4987192;28;20045;-61
2023/08/03 06:48:00;;;;;;;13.15;9.73;;;;;;;;;;4985175;28;21771;-65
2023/08/03 06:50:26;;;;;;;10.90;9.73;;;;;;;;;;5000424;28;20500;-65
2023/08/03 06:52:51;;;;;;;12.18;9.38;;;;;;;;;;4989029;28;20034;-66
2023/08/03 06:55:17;;;;;;;13.65;10.00;;;;;;;;;;5002136;28;20412;-64
2023/08/03 06:57:42;;;;;;;12.02;9.85;;;;;;;;;;4990757;28;20038;-63
2023/08/03 07:00:08;;;;;;;12.70;9.55;;;;;;;;;;4989300;28;20173;-71
2023/08/03 07:02:33;;;;;;;11.60;9.15;;;;;;;;;;4985762;28;20508;-64
2023/08/03 07:04:58;;;;;;;11.63;9.90;;;;;;;;;;4987787;28;20065;-62
2023/08/03 07:07:24;;;;;;;14.18;10.50;;;;;;;;;;4988337;28;20088;-64
2023/08/03 07:09:49;;;;;;;13.43;9.13;;;;;;;;;;4988659;28;20070;-62
2023/08/03 07:12:15;;;;;;;13.80;9.40;;;;;;;;;;4975011;28;20066;-64
2023/08/03 07:14:40;;;;;;;12.30;9.15;;;;;;;;;;4974313;28;20038;-62
2023/08/03 07:17:05;;;;;;;12.15;9.88;;;;;;;;;;4974690;28;20030;-69
2023/08/03 07:19:31;;;;;;;14.25;9.27;;;;;;;;;;4974882;28;20050;-67
2023/08/03 07:21:56;;;;;;;11.67;9.50;;;;;;;;;;4975259;28;20543;-66
2023/08/03 07:24:21;;;;;;;13.07;9.23;;;;;;;;;;4975921;28;20433;-63
2023/08/03 07:26:49;;;;;;;11.43;8.77;;;;;;;;;;4975687;28;20464;-64
2023/08/03 07:29:15;;;;;;;10.45;9.10;;;;;;;;;;4975409;28;20591;-64
2023/08/03 07:31:40;;;;;;;13.52;8.75;;;;;;;;;;4975456;28;20041;-62
2023/08/03 07:34:05;;;;;;;12.93;10.33;;;;;;;;;;4989331;28;20132;-67
2023/08/03 07:36:31;;;;;;;13.30;9.13;;;;;;;;;;4974234;28;20297;-67
2023/08/03 07:38:56;;;;;;;10.45;8.80;;;;;;;;;;4975101;28;20059;-65
2023/08/03 07:41:21;;;;;;;11.25;8.50;;;;;;;;;;4973278;28;20038;-62
2023/08/03 07:43:47;;;;;;;11.30;9.07;;;;;;;;;;4973371;28;20049;-65
2023/08/03 07:46:13;;;;;;;10.80;8.77;;;;;;;;;;4973968;28;20030;-65
2023/08/03 07:48:38;;;;;;;12.15;9.45;;;;;;;;;;4989062;28;20500;-63
2023/08/03 07:51:16;;;;;;;12.45;9.40;;;;;;;;;;4971583;28;20065;-60
2023/08/03 07:53:41;;;;;;;12.85;9.63;;;;;;;;;;4978220;28;20166;-63
2023/08/03 07:56:15;;;;;;;12.52;9.68;;;;;;;;;;4967449;28;20122;-66
2023/08/03 07:58:41;;;;;;;14.50;9.68;;;;;;;;;;4967393;28;20496;-62
2023/08/03 08:01:06;;;;;;;10.07;8.60;;;;;;;;;;4967698;28;20038;-66
2023/08/03 08:03:31;;;;;;;13.70;9.88;;;;;;;;;;4985103;28;20860;-64
2023/08/03 08:06:06;;;;;;;10.83;9.70;;;;;;;;;;4967311;28;20508;-63
2023/08/03 08:08:31;;;;;;;11.05;9.10;;;;;;;;;;4982103;28;20039;-63
2023/08/03 08:10:57;;;;;;;14.30;10.13;;;;;;;;;;4973736;28;20042;-68
2023/08/03 08:13:22;;;;;;;10.93;9.35;;;;;;;;;;4973480;28;20427;-62
2023/08/03 08:15:47;;;;;;;13.03;9.23;;;;;;;;;;4975630;28;20173;-61
2023/08/03 08:18:12;;;;;;;14.20;10.20;;;;;;;;;;4967474;28;20274;-63
2023/08/03 08:20:39;;;;;;;10.13;8.70;;;;;;;;;;5000019;28;20430;-64
2023/08/03 08:23:04;;;;;;;12.50;9.00;;;;;;;;;;4983573;28;20692;-63
2023/08/03 08:25:33;;;;;;;10.43;8.65;;;;;;;;;;4970806;28;20031;-67
2023/08/03 08:27:58;;;;;;;10.30;9.20;;;;;;;;;;4986123;28;20093;-64
2023/08/03 08:30:23;;;;;;;13.33;8.87;;;;;;;;;;4986885;28;20736;-62
2023/08/03 08:32:48;;;;;;;9.77;8.23;;;;;;;;;;4968286;28;20464;-65
2023/08/03 08:35:14;;;;;;;11.50;8.97;;;;;;;;;;4968454;28;20282;-66
2023/08/03 08:37:39;;;;;;;9.48;8.48;;;;;;;;;;4966524;28;20197;-65
2023/08/03 08:40:05;;;;;;;9.38;8.40;;;;;;;;;;4967070;28;20146;-67
2023/08/03 08:42:30;;;;;;;10.18;8.50;;;;;;;;;;4966359;28;20121;-65
2023/08/03 08:44:55;;;;;;;11.35;8.23;;;;;;;;;;4978743;28;20053;-66
2023/08/03 08:47:20;;;;;;;10.80;8.47;;;;;;;;;;5000762;28;20132;-63
2023/08/03 08:49:46;;;;;;;9.27;7.60;;;;;;;;;;4984798;28;20660;-66
2023/08/03 08:52:11;;;;;;;12.13;8.57;;;;;;;;;;5000624;28;20424;-65
2023/08/03 08:54:37;;;;;;;9.75;8.07;;;;;;;;;;4979978;28;20042;-62
2023/08/03 08:57:02;;;;;;;9.73;8.57;;;;;;;;;;4986044;28;20566;-63
2023/08/03 08:59:27;;;;;;;9.60;8.05;;;;;;;;;;4984528;28;20089;-62
2023/08/03 09:01:53;;;;;;;8.93;7.57;;;;;;;;;;4985026;28;20074;-63
2023/08/03 09:04:28;;;;;;;9.35;7.85;;;;;;;;;;4983003;28;20034;-63
2023/08/03 09:06:53;;;;;;;9.30;7.90;;;;;;;;;;4985334;28;20042;-63
2023/08/03 09:09:24;;;;;;;8.85;7.93;;;;;;;;;;4984244;28;20049;-62
2023/08/03 09:11:49;;;;;;;8.80;7.50;;;;;;;;;;4984207;28;20096;-63
2023/08/03 09:14:15;;;;;;;8.90;7.97;;;;;;;;;;4979164;28;20018;-62
2023/08/03 09:16:40;;;;;;;9.02;7.43;;;;;;;;;;5010151;28;20663;-61
2023/08/03 09:19:05;;;;;;;7.75;6.95;;;;;;;;;;4984352;28;20030;-65
2023/08/03 09:21:31;;;;;;;9.55;7.30;;;;;;;;;;4984087;28;20089;-69
2023/08/03 09:23:56;;;;;;;7.97;7.18;;;;;;;;;;4983740;28;20026;-66
2023/08/03 09:26:22;;;;;;;8.93;7.15;;;;;;;;;;4966423;28;20053;-63
2023/08/03 09:28:47;;;;;;;8.05;7.18;;;;;;;;;;4966301;28;20033;-61
2023/08/03 09:31:19;;;;;;;8.93;7.32;;;;;;;;;;4966156;28;20037;-60
2023/08/03 09:33:44;;;;;;;8.52;7.32;;;;;;;;;;4997165;28;20567;-64
2023/08/03 09:36:11;;;;;;;9.53;7.33;;;;;;;;;;4983396;28;20113;-61
2023/08/03 09:38:39;;;;;;;7.85;6.88;;;;;;;;;;4979823;28;20026;-62
2023/08/03 09:41:05;;;;;;;8.07;7.20;;;;;;;;;;4976942;28;20054;-67
2023/08/03 09:43:31;;;;;;;8.25;6.85;;;;;;;;;;4987440;28;20558;-62
2023/08/03 09:45:56;;;;;;;9.23;7.15;;;;;;;;;;4988977;28;20556;-64
2023/08/03 09:48:21;;;;;;;8.18;7.25;;;;;;;;;;4985535;28;20125;-65
2023/08/03 09:50:49;;;;;;;8.40;7.15;;;;;;;;;;4987400;28;20424;-65
2023/08/03 09:53:16;;;;;;;8.32;7.18;;;;;;;;;;4974455;28;20039;-66
2023/08/03 09:55:42;;;;;;;9.77;7.10;;;;;;;;;;4971326;28;20045;-65
2023/08/03 09:58:09;;;;;;;7.80;7.00;;;;;;;;;;4987450;28;20042;-64
2023/08/03 10:00:34;;;;;;;7.70;6.82;;;;;;;;;;4988861;28;20059;-65
2023/08/03 10:03:10;;;;;;;8.07;6.80;;;;;;;;;;4986840;28;20072;-64
2023/08/03 10:05:39;;;;;;;7.80;6.85;;;;;;;;;;4972639;28;20066;-63
2023/08/03 10:08:13;;;;;;;7.80;7.00;;;;;;;;;;4986853;28;20035;-63
2023/08/03 10:10:40;;;;;;;8.60;6.72;;;;;;;;;;4972700;28;20042;-62
2023/08/03 10:13:05;;;;;;;8.98;6.88;;;;;;;;;;4973732;28;20053;-64
2023/08/03 10:15:31;;;;;;;7.60;6.63;;;;;;;;;;4971900;28;20039;-63
2023/08/03 10:17:56;;;;;;;8.35;6.85;;;;;;;;;;4973189;28;21030;-64
2023/08/03 10:20:23;;;;;;;8.13;6.93;;;;;;;;;;4972679;28;20621;-60
2023/08/03 10:23:08;;;;;;;7.38;6.40;;;;;;;;;;4972030;28;20290;-64
2023/08/03 10:25:33;;;;;;;9.15;6.57;;;;;;;;;;4973283;28;20034;-61
2023/08/03 10:28:14;;;;;;;7.40;6.57;;;;;;;;;;4971767;28;20034;-64
2023/08/03 10:30:58;;;;;;;7.30;6.43;;;;;;;;;;4971771;28;20301;-61
2023/08/03 10:33:23;;;;;;;7.70;6.25;;;;;;;;;;4972540;28;21750;-62
2023/08/03 10:35:49;;;;;;;7.07;6.27;;;;;;;;;;4974414;28;20106;-61
2023/08/03 10:38:18;;;;;;;7.78;6.20;;;;;;;;;;4976255;28;20293;-64
2023/08/03 10:40:44;;;;;;;7.57;6.30;;;;;;;;;;4972638;28;20081;-63
2023/08/03 10:43:09;;;;;;;6.97;6.17;;;;;;;;;;4972791;28;20062;-62
2023/08/03 10:45:35;;;;;;;6.53;5.82;;;;;;;;;;4971889;28;20071;-62
2023/08/03 10:48:21;;;;;;;7.47;6.15;;;;;;;;;;4975302;28;20041;-62
2023/08/03 10:50:56;;;;;;;6.75;6.05;;;;;;;;;;4990097;28;20508;-63
2023/08/03 10:53:21;;;;;;;6.60;5.90;;;;;;;;;;4974649;28;20039;-62
2023/08/03 10:55:47;;;;;;;6.70;6.00;;;;;;;;;;4975329;28;20025;-62
2023/08/03 10:58:13;;;;;;;7.88;6.20;;;;;;;;;;4975546;28;20034;-63
2023/08/03 11:00:42;;;;;;;7.93;5.90;;;;;;;;;;4991410;28;20039;-62
2023/08/03 11:03:07;;;;;;;6.25;5.65;;;;;;;;;;4974913;28;20277;-62
2023/08/03 11:05:32;;;;;;;7.90;6.17;;;;;;;;;;4976739;28;20042;-62
2023/08/03 11:07:57;;;;;;;7.35;6.45;;;;;;;;;;4981313;28;20029;-63
2023/08/03 11:10:23;;;;;;;7.53;6.50;;;;;;;;;;4977319;28;20065;-63
2023/08/03 11:12:48;;;;;;;6.57;5.87;;;;;;;;;;4984399;28;20018;-63
2023/08/03 11:15:16;;;;;;;7.15;5.95;;;;;;;;;;4999621;28;20023;-64
2023/08/03 11:17:43;;;;;;;7.38;6.00;;;;;;;;;;5000056;28;20080;-66
2023/08/03 11:20:09;;;;;;;6.57;5.70;;;;;;;;;;5000180;28;20051;-64
2023/08/03 11:22:35;;;;;;;6.82;6.13;;;;;;;;;;4985283;28;20043;-63
2023/08/03 11:25:01;;;;;;;7.45;5.93;;;;;;;;;;4994720;28;20041;-62
2023/08/03 11:27:26;;;;;;;6.82;6.13;;;;;;;;;;4977402;28;20038;-62
2023/08/03 11:29:52;;;;;;;6.72;6.03;;;;;;;;;;4995320;28;20093;-60
2023/08/03 11:32:24;;;;;;;8.15;6.25;;;;;;;;;;4979159;28;20913;-62
2023/08/03 11:34:49;;;;;;;6.50;5.60;;;;;;;;;;4985861;28;20038;-62
2023/08/03 11:37:14;;;;;;;7.30;6.10;;;;;;;;;;4979110;28;20061;-63
2023/08/03 11:39:40;;;;;;;6.57;5.87;;;;;;;;;;4983648;28;20050;-61
2023/08/03 11:42:06;;;;;;;6.85;6.15;;;;;;;;;;4977573;28;20097;-63
2023/08/03 11:44:31;;;;;;;6.35;5.68;;;;;;;;;;4986778;28;20450;-61
2023/08/03 11:47:03;;;;;;;6.50;5.80;;;;;;;;;;4991878;28;20049;-61
2023/08/03 11:49:29;;;;;;;7.05;6.13;;;;;;;;;;4974411;28;20038;-60
2023/08/03 11:51:59;;;;;;;7.22;6.53;;;;;;;;;;4976568;28;20045;-63
2023/08/03 11:54:24;;;;;;;6.47;5.80;;;;;;;;;;4968730;28;20523;-61
2023/08/03 11:56:50;;;;;;;7.22;6.28;;;;;;;;;;4968559;28;20031;-62
2023/08/03 11:59:15;;;;;;;6.60;5.63;;;;;;;;;;4983652;28;20031;-62
2023/08/03 12:01:45;;;;;;;7.03;5.93;;;;;;;;;;4967610;28;20271;-64
2023/08/03 12:04:10;;;;;;;6.60;5.90;;;;;;;;;;4967935;28;20373;-63
2023/08/03 12:06:45;;;;;;;6.70;6.00;;;;;;;;;;4978512;28;20674;-61
2023/08/03 12:09:16;;;;;;;8.07;5.70;;;;;;;;;;5001453;28;20089;-63
2023/08/03 12:11:41;;;;;;;6.72;5.80;;;;;;;;;;5001029;28;20113;-60
2023/08/03 12:14:06;;;;;;;6.53;5.43;;;;;;;;;;4986975;28;20145;-62
2023/08/03 12:16:32;;;;;;;6.67;5.97;;;;;;;;;;4986493;28;20122;-62
2023/08/03 12:18:57;;;;;;;6.20;5.57;;;;;;;;;;4986244;28;20261;-61
2023/08/03 12:21:22;;;;;;;6.90;5.43;;;;;;;;;;4986511;28;20778;-60
2023/08/03 12:23:47;;;;;;;6.80;5.65;;;;;;;;;;4986957;28;20407;-61
2023/08/03 12:26:13;;;;;;;6.18;5.57;;;;;;;;;;4986226;28;20105;-61
2023/08/03 12:28:38;;;;;;;6.20;5.60;;;;;;;;;;4986281;28;20042;-61
2023/08/03 12:31:03;;;;;;;5.57;4.87;;;;;;;;;;4986456;28;20097;-62
2023/08/03 12:33:28;;;;;;;5.67;5.10;;;;;;;;;;4985903;28;20269;-62
2023/08/03 12:35:53;;;;;;;6.00;5.33;;;;;;;;;;4997817;28;20309;-63
2023/08/03 12:38:19;;;;;;;5.70;5.10;;;;;;;;;;4967822;28;20799;-63
2023/08/03 12:40:44;;;;;;;5.90;5.23;;;;;;;;;;4998968;28;20492;-63
2023/08/03 12:43:09;;;;;;;6.10;5.50;;;;;;;;;;4986233;28;20491;-63
2023/08/03 12:45:34;;;;;;;5.80;5.20;;;;;;;;;;4996840;28;20663;-62
2023/08/03 12:48:03;;;;;;;6.33;5.27;;;;;;;;;;4975189;28;20277;-61
2023/08/03 12:50:29;;;;;;;6.30;5.50;;;;;;;;;;4999816;28;20108;-61
2023/08/03 12:52:54;;;;;;;6.15;5.53;;;;;;;;;;4984708;28;20034;-64
2023/08/03 12:55:20;;;;;;;6.33;4.80;;;;;;;;;;4985939;28;20037;-62
2023/08/03 12:57:45;;;;;;;5.88;5.28;;;;;;;;;;4970373;28;20293;-63
2023/08/03 13:00:10;;;;;;;6.10;5.18;;;;;;;;;;4973767;28;20054;-65
2023/08/03 13:02:36;;;;;;;7.03;5.35;;;;;;;;;;5001812;28;20543;-65
2023/08/03 13:05:01;;;;;;;5.73;4.93;;;;;;;;;;4976296;28;20100;-65
2023/08/03 13:07:26;;;;;;;5.97;5.30;;;;;;;;;;4972877;28;20281;-63
2023/08/03 13:09:51;;;;;;;6.80;5.00;;;;;;;;;;4976724;28;20791;-63
2023/08/03 13:12:17;;;;;;;6.10;5.30;;;;;;;;;;4986355;28;20269;-63
2023/08/03 13:14:42;;;;;;;5.53;4.90;;;;;;;;;;4984319;28;20030;-63
2023/08/03 13:17:07;;;;;;;5.47;4.97;;;;;;;;;;4976211;28;20283;-62
2023/08/03 13:19:32;;;;;;;6.97;4.78;;;;;;;;;;4965841;28;20429;-64
2023/08/03 13:21:58;;;;;;;5.80;4.73;;;;;;;;;;4993638;28;20136;-65
2023/08/03 13:24:23;;;;;;;6.13;5.07;;;;;;;;;;4987036;28;20269;-65
2023/08/03 13:26:49;;;;;;;6.30;4.70;;;;;;;;;;4985581;28;20494;-62
2023/08/03 13:29:17;;;;;;;6.45;4.72;;;;;;;;;;4986471;28;20034;-62
2023/08/03 13:31:42;;;;;;;5.78;4.72;;;;;;;;;;4985586;28;20038;-63
2023/08/03 13:34:07;;;;;;;6.00;4.97;;;;;;;;;;4985488;28;20022;-65
2023/08/03 13:36:32;;;;;;;5.57;4.60;;;;;;;;;;4981961;28;20353;-62
2023/08/03 13:38:57;;;;;;;5.83;4.90;;;;;;;;;;4972915;28;20043;-67
2023/08/03 13:41:23;;;;;;;5.53;4.80;;;;;;;;;;4986544;28;20284;-67
2023/08/03 13:43:48;;;;;;;5.65;4.70;;;;;;;;;;4987233;28;20909;-61
2023/08/03 13:46:13;;;;;;;5.75;4.82;;;;;;;;;;5000448;28;20441;-64
2023/08/03 13:48:39;;;;;;;5.43;4.70;;;;;;;;;;4966550;28;20050;-62
2023/08/03 13:51:04;;;;;;;5.38;4.45;;;;;;;;;;4966859;28;20039;-61
2023/08/03 13:53:29;;;;;;;6.00;4.95;;;;;;;;;;4966998;28;20479;-62
2023/08/03 13:55:55;;;;;;;4.90;4.35;;;;;;;;;;4966844;28;20046;-62
2023/08/03 13:58:20;;;;;;;5.33;4.50;;;;;;;;;;4982727;28;20073;-63
2023/08/03 14:00:45;;;;;;;6.17;4.67;;;;;;;;;;4985418;28;20810;-62
2023/08/03 14:03:10;;;;;;;5.28;4.70;;;;;;;;;;4999896;28;20062;-68
2023/08/03 14:05:36;;;;;;;5.53;4.47;;;;;;;;;;4985665;28;20046;-65
2023/08/03 14:08:01;;;;;;;6.88;4.65;;;;;;;;;;4997590;28;20660;-66
2023/08/03 14:10:26;;;;;;;5.47;4.30;;;;;;;;;;4966258;28;20049;-67
2023/08/03 14:12:52;;;;;;;4.77;4.23;;;;;;;;;;4966107;28;20086;-67
2023/08/03 14:15:17;;;;;;;4.70;4.07;;;;;;;;;;4966529;28;20704;-63
2023/08/03 14:17:42;;;;;;;4.95;4.40;;;;;;;;;;4965787;28;20031;-65
2023/08/03 14:20:08;;;;;;;5.67;4.63;;;;;;;;;;4979417;28;20717;-63
2023/08/03 14:22:33;;;;;;;5.25;4.15;;;;;;;;;;4988235;28;20538;-65
2023/08/03 14:24:58;;;;;;;5.13;4.00;;;;;;;;;;4990218;28;20042;-65
2023/08/03 14:27:24;;;;;;;5.40;4.20;;;;;;;;;;4983305;28;20070;-63
2023/08/03 14:29:49;;;;;;;4.30;3.73;;;;;;;;;;4985278;28;20042;-62
2023/08/03 14:32:14;;;;;;;4.28;3.88;;;;;;;;;;4968797;28;20724;-66
2023/08/03 14:34:39;;;;;;;5.77;4.13;;;;;;;;;;4973812;28;20035;-66
2023/08/03 14:37:06;;;;;;;5.67;4.40;;;;;;;;;;4975736;28;20312;-66
2023/08/03 14:39:32;;;;;;;5.88;4.50;;;;;;;;;;4972833;28;20331;-63
2023/08/03 14:41:57;;;;;;;5.80;4.20;;;;;;;;;;4989107;28;20380;-64
2023/08/03 14:44:22;;;;;;;5.73;4.30;;;;;;;;;;4976097;28;20041;-62
2023/08/03 14:46:48;;;;;;;5.63;4.47;;;;;;;;;;4975712;28;20031;-62
2023/08/03 14:49:13;;;;;;;5.83;4.27;;;;;;;;;;4975448;28;20065;-61
2023/08/03 14:51:39;;;;;;;5.67;4.37;;;;;;;;;;4976550;28;20364;-65
2023/08/03 14:54:04;;;;;;;5.47;4.40;;;;;;;;;;4990113;28;20316;-63
2023/08/03 14:56:29;;;;;;;5.00;4.00;;;;;;;;;;4989478;28;20038;-63
2023/08/03 14:58:54;;;;;;;5.13;4.27;;;;;;;;;;4973180;28;20388;-63
2023/08/03 15:01:20;;;;;;;5.10;3.83;;;;;;;;;;4976080;28;20310;-66
2023/08/03 15:03:45;;;;;;;5.03;3.72;;;;;;;;;;4975280;28;20046;-67
2023/08/03 15:06:14;;;;;;;4.88;4.10;;;;;;;;;;4976390;28;20070;-66
2023/08/03 15:08:39;;;;;;;4.20;3.70;;;;;;;;;;4976428;28;20039;-63
2023/08/03 15:11:04;;;;;;;4.47;3.90;;;;;;;;;;4974727;28;20043;-64